Time;durP1;ratioP1;P1;durP2;ratioP2;P2;SDS_P1;SDS_P2;PMS_P1;PMS_P2;Temp;Humidity;BMP_temperature;BMP_pressure;BME280_temperature;BME280_humidity;BME280_pressure;Samples;Min_cycle;Max_cycle;Signal;HPM_P1;HPM_P2
2022/07/25 00:00:49;;;;;;;;;;;;;;;20.61;41.69;100654.22;4883484;28;97683;-59
2022/07/25 00:03:41;;;;;;;;;;;;;;;20.56;41.71;100647.00;4882539;28;98393;-66
2022/07/25 00:06:34;;;;;;;;;;;;;;;20.53;41.73;100639.44;4872164;28;98425;-65
2022/07/25 00:09:27;;;;;;;;;;;;;;;20.50;41.88;100644.78;4882026;28;98017;-63
2022/07/25 00:12:19;;;;;;;;;;;;;;;20.46;41.82;100643.78;4882325;28;97903;-59
2022/07/25 00:15:12;;;;;;;;;;;;;;;20.40;42.00;100624.03;4882071;28;98658;-59
2022/07/25 00:18:04;;;;;;;;;;;;;;;20.35;42.10;100638.69;4881992;28;97869;-59
2022/07/25 00:20:57;;;;;;;;;;;;;;;20.31;42.09;100632.25;4881759;28;97837;-60
2022/07/25 00:23:50;;;;;;;;;;;;;;;20.25;42.05;100643.72;4863781;28;97891;-59
2022/07/25 00:26:43;;;;;;;;;;;;;;;20.18;42.06;100630.56;4872585;28;98498;-65
2022/07/25 00:29:35;;;;;;;;;;;;;;;20.15;42.44;100625.72;4882775;28;98292;-59
2022/07/25 00:32:28;;;;;;;;;;;;;;;20.09;42.55;100627.84;4878212;28;97890;-59
2022/07/25 00:35:21;;;;;;;;;;;;;;;20.05;42.46;100620.63;4881732;28;97996;-59
2022/07/25 00:38:13;;;;;;;;;;;;;;;20.00;42.75;100618.06;4862901;28;98495;-66
2022/07/25 00:41:06;;;;;;;;;;;;;;;19.94;42.67;100625.63;4873252;28;98224;-59
2022/07/25 00:44:00;;;;;;;;;;;;;;;19.89;42.86;100620.34;4881879;28;98410;-64
2022/07/25 00:46:54;;;;;;;;;;;;;;;19.85;42.90;100622.94;4871866;28;97769;-65
2022/07/25 00:49:47;;;;;;;;;;;;;;;19.80;42.98;100620.34;4881866;28;99182;-65
2022/07/25 00:52:40;;;;;;;;;;;;;;;19.77;43.17;100607.34;4878958;28;98016;-65
2022/07/25 00:55:33;;;;;;;;;;;;;;;19.75;43.02;100609.59;4879155;28;98244;-59
2022/07/25 00:58:25;;;;;;;;;;;;;;;19.76;43.21;100613.13;4881345;28;97896;-65
2022/07/25 01:01:18;;;;;;;;;;;;;;;19.76;43.39;100604.94;4881405;28;98285;-65
2022/07/25 01:04:11;;;;;;;;;;;;;;;19.74;43.36;100602.53;4881838;28;98157;-59
2022/07/25 01:07:03;;;;;;;;;;;;;;;19.73;43.37;100597.38;4881531;28;98268;-59
2022/07/25 01:09:56;;;;;;;;;;;;;;;19.70;43.62;100604.31;4882098;28;97744;-60
2022/07/25 01:13:00;;;;;;;;;;;;;;;19.68;43.62;100600.28;4880984;28;98672;-59
2022/07/25 01:15:52;;;;;;;;;;;;;;;19.62;43.79;100596.94;4882083;28;98504;-65
2022/07/25 01:18:45;;;;;;;;;;;;;;;19.58;43.73;100598.69;4881740;28;98216;-59
2022/07/25 01:21:38;;;;;;;;;;;;;;;19.53;43.88;100598.81;4881940;28;97919;-59
2022/07/25 01:24:30;;;;;;;;;;;;;;;19.49;43.71;100592.41;4881212;28;98449;-59
2022/07/25 01:27:23;;;;;;;;;;;;;;;19.45;43.91;100597.72;4874274;28;98364;-59
2022/07/25 01:30:15;;;;;;;;;;;;;;;19.43;44.01;100586.31;4880624;28;98113;-59
2022/07/25 01:33:08;;;;;;;;;;;;;;;19.42;44.10;100589.38;4881089;28;97656;-67
2022/07/25 01:36:01;;;;;;;;;;;;;;;19.40;44.27;100584.22;4881273;28;98630;-59
2022/07/25 01:38:53;;;;;;;;;;;;;;;19.38;44.21;100584.56;4881622;28;98356;-65
2022/07/25 01:41:46;;;;;;;;;;;;;;;19.38;44.22;100578.28;4880771;28;97897;-59
2022/07/25 01:44:38;;;;;;;;;;;;;;;19.37;44.34;100571.19;4881768;28;98066;-65
2022/07/25 01:47:31;;;;;;;;;;;;;;;19.35;44.26;100568.78;4880199;28;98797;-65
2022/07/25 01:50:37;;;;;;;;;;;;;;;19.34;44.36;100569.94;4880939;28;119427;-65
2022/07/25 01:53:30;;;;;;;;;;;;;;;19.32;44.40;100566.72;4862281;28;97922;-65
2022/07/25 01:56:23;;;;;;;;;;;;;;;19.31;44.49;100567.03;4867980;28;97966;-66
2022/07/25 01:59:15;;;;;;;;;;;;;;;19.29;44.64;100563.81;4880496;28;98831;-65
2022/07/25 02:02:08;;;;;;;;;;;;;;;19.28;44.72;100560.28;4880467;28;98222;-65
2022/07/25 02:05:00;;;;;;;;;;;;;;;19.26;44.69;100559.81;4880546;28;97947;-59
2022/07/25 02:07:53;;;;;;;;;;;;;;;19.25;44.62;100549.19;4881445;28;98123;-59
2022/07/25 02:10:46;;;;;;;;;;;;;;;19.24;44.89;100558.53;4881050;28;99439;-65
2022/07/25 02:13:38;;;;;;;;;;;;;;;19.22;44.84;100556.13;4864373;28;98870;-59
2022/07/25 02:16:31;;;;;;;;;;;;;;;19.19;44.82;100556.78;4878817;28;97812;-59
2022/07/25 02:19:23;;;;;;;;;;;;;;;19.16;44.93;100551.94;4861349;28;97915;-59
2022/07/25 02:22:16;;;;;;;;;;;;;;;19.16;45.16;100551.94;4872800;28;98593;-59
2022/07/25 02:25:09;;;;;;;;;;;;;;;19.13;45.09;100544.38;4879739;28;98389;-59
2022/07/25 02:28:01;;;;;;;;;;;;;;;19.12;45.22;100546.31;4878320;28;99582;-65
2022/07/25 02:30:54;;;;;;;;;;;;;;;19.10;45.16;100543.13;4866233;28;97876;-65
2022/07/25 02:33:47;;;;;;;;;;;;;;;19.09;45.28;100548.88;4867111;28;98527;-59
2022/07/25 02:36:39;;;;;;;;;;;;;;;19.07;45.43;100551.94;4878887;28;98421;-59
2022/07/25 02:39:32;;;;;;;;;;;;;;;19.06;45.58;100547.63;4879961;28;97978;-59
2022/07/25 02:42:25;;;;;;;;;;;;;;;19.07;45.28;100548.41;4878942;28;98018;-65
2022/07/25 02:45:17;;;;;;;;;;;;;;;19.03;45.60;100548.25;4882614;28;98170;-65
2022/07/25 02:48:10;;;;;;;;;;;;;;;19.02;45.53;100541.19;4882294;28;98471;-65
2022/07/25 02:51:02;;;;;;;;;;;;;;;19.00;45.65;100539.91;4882066;28;98036;-59
2022/07/25 02:53:55;;;;;;;;;;;;;;;18.98;45.75;100545.69;4877653;28;98029;-59
2022/07/25 02:56:48;;;;;;;;;;;;;;;18.96;45.93;100539.75;4876267;28;98530;-59
2022/07/25 02:59:41;;;;;;;;;;;;;;;18.95;45.71;100534.63;4881418;28;98201;-67
2022/07/25 03:02:33;;;;;;;;;;;;;;;18.94;45.80;100533.78;4881581;28;99384;-59
2022/07/25 03:05:26;;;;;;;;;;;;;;;18.96;45.99;100542.47;4882343;28;98349;-66
2022/07/25 03:08:19;;;;;;;;;;;;;;;18.95;45.95;100537.34;4863312;28;98825;-59
2022/07/25 03:11:11;;;;;;;;;;;;;;;18.95;46.04;100538.13;4866751;28;98592;-65
2022/07/25 03:14:04;;;;;;;;;;;;;;;18.95;45.92;100532.69;4882720;28;98385;-59
2022/07/25 03:16:57;;;;;;;;;;;;;;;18.96;45.83;100528.81;4881884;28;97842;-65
2022/07/25 03:19:49;;;;;;;;;;;;;;;18.96;46.17;100537.00;4881420;28;98000;-65
2022/07/25 03:22:42;;;;;;;;;;;;;;;18.98;46.28;100534.78;4881347;28;99665;-65
2022/07/25 03:25:34;;;;;;;;;;;;;;;18.98;46.26;100533.94;4881235;28;97819;-59
2022/07/25 03:28:27;;;;;;;;;;;;;;;19.00;46.32;100528.97;4862456;28;98086;-60
2022/07/25 03:31:21;;;;;;;;;;;;;;;19.01;46.30;100531.38;4868997;28;98252;-66
2022/07/25 03:34:14;;;;;;;;;;;;;;;19.01;46.07;100525.91;4881881;28;98574;-65
2022/07/25 03:37:06;;;;;;;;;;;;;;;19.01;46.33;100528.66;4880704;28;97762;-59
2022/07/25 03:39:59;;;;;;;;;;;;;;;19.00;46.45;100523.50;4882335;28;98222;-59
2022/07/25 03:42:51;;;;;;;;;;;;;;;19.01;46.56;100522.38;4880259;28;98936;-65
2022/07/25 03:45:44;;;;;;;;;;;;;;;19.02;46.39;100516.63;4881430;28;99380;-59
2022/07/25 03:48:36;;;;;;;;;;;;;;;19.05;46.56;100513.22;4880908;28;98009;-60
2022/07/25 03:51:29;;;;;;;;;;;;;;;19.08;46.47;100514.50;4878873;28;97882;-65
2022/07/25 03:54:22;;;;;;;;;;;;;;;19.10;46.68;100509.53;4881246;28;98352;-59
2022/07/25 03:57:14;;;;;;;;;;;;;;;19.11;46.76;100511.13;4880451;28;99400;-58
2022/07/25 04:00:07;;;;;;;;;;;;;;;19.11;46.56;100511.13;4881512;28;97892;-59
2022/07/25 04:03:00;;;;;;;;;;;;;;;19.13;46.67;100506.94;4881933;28;98042;-66
2022/07/25 04:05:52;;;;;;;;;;;;;;;19.15;46.78;100497.63;4880741;28;98747;-58
2022/07/25 04:08:45;;;;;;;;;;;;;;;19.18;46.62;100497.78;4880902;28;98512;-59
2022/07/25 04:11:38;;;;;;;;;;;;;;;19.22;46.63;100496.03;4881149;28;99441;-59
2022/07/25 04:14:31;;;;;;;;;;;;;;;19.25;46.63;100489.88;4881791;28;98200;-65
2022/07/25 04:17:23;;;;;;;;;;;;;;;19.29;46.65;100488.09;4882031;28;98430;-66
2022/07/25 04:20:16;;;;;;;;;;;;;;;19.32;46.72;100483.94;4874376;28;99427;-65
2022/07/25 04:23:09;;;;;;;;;;;;;;;19.35;46.78;100477.81;4861636;28;98394;-66
2022/07/25 04:26:02;;;;;;;;;;;;;;;19.38;46.60;100471.72;4873992;28;97963;-66
2022/07/25 04:28:56;;;;;;;;;;;;;;;19.44;46.54;100461.38;4879089;28;98072;-58
2022/07/25 04:31:49;;;;;;;;;;;;;;;19.47;46.52;100464.28;4880881;28;98106;-59
2022/07/25 04:34:42;;;;;;;;;;;;;;;19.51;46.70;100453.50;4881583;28;97850;-66
2022/07/25 04:37:36;;;;;;;;;;;;;;;19.55;46.35;100455.25;4881035;27;97794;-66
2022/07/25 04:40:28;;;;;;;;;;;;;;;19.61;46.50;100459.44;4863832;28;98415;-66
2022/07/25 04:43:22;;;;;;;;;;;;;;;19.66;46.47;100446.72;4890034;28;100174;-65
2022/07/25 04:46:14;;;;;;;;;;;;;;;19.71;46.36;100444.59;4893932;28;98182;-65
2022/07/25 04:49:07;;;;;;;;;;;;;;;19.75;46.59;100440.06;4878728;28;99693;-66
2022/07/25 04:52:00;;;;;;;;;;;;;;;19.78;46.36;100427.66;4880194;28;98647;-65
2022/07/25 04:54:53;;;;;;;;;;;;;;;19.81;46.21;100416.88;4880297;28;98406;-65
2022/07/25 04:57:45;;;;;;;;;;;;;;;19.84;46.07;100421.66;4879767;28;97817;-66
2022/07/25 05:00:38;;;;;;;;;;;;;;;19.94;46.18;100425.97;4870680;28;97837;-65
2022/07/25 05:03:31;;;;;;;;;;;;;;;20.00;46.17;100424.66;4873020;28;98226;-65
2022/07/25 05:06:24;;;;;;;;;;;;;;;20.06;46.30;100419.78;4876190;28;98626;-65
2022/07/25 05:09:17;;;;;;;;;;;;;;;20.17;46.00;100425.66;4861529;28;98125;-65
2022/07/25 05:12:09;;;;;;;;;;;;;;;20.32;45.99;100422.34;4861615;28;97761;-65
2022/07/25 05:15:02;;;;;;;;;;;;;;;20.51;45.54;100413.66;4877469;28;98295;-65
2022/07/25 05:17:54;;;;;;;;;;;;;;;20.62;45.83;100406.66;4879875;28;98271;-59
2022/07/25 05:20:47;;;;;;;;;;;;;;;20.90;45.48;100403.31;4860669;28;98705;-60
2022/07/25 05:23:39;;;;;;;;;;;;;;;21.12;45.20;100388.44;4861881;28;97872;-65
2022/07/25 05:26:32;;;;;;;;;;;;;;;21.37;44.99;100401.03;4877676;28;97738;-60
2022/07/25 05:29:26;;;;;;;;;;;;;;;21.62;44.69;100395.59;4880388;28;98572;-59
2022/07/25 05:32:18;;;;;;;;;;;;;;;21.80;44.61;100394.97;4875620;28;98043;-59
2022/07/25 05:35:11;;;;;;;;;;;;;;;21.90;44.41;100390.97;4861784;28;97712;-59
2022/07/25 05:38:04;;;;;;;;;;;;;;;22.10;44.24;100397.47;4879359;28;98386;-59
2022/07/25 05:40:57;;;;;;;;;;;;;;;22.35;43.89;100392.72;4880340;28;98240;-59
2022/07/25 05:43:49;;;;;;;;;;;;;;;22.44;43.91;100392.56;4880514;28;98226;-59
2022/07/25 05:46:42;;;;;;;;;;;;;;;22.63;43.90;100384.47;4880667;28;97981;-65
2022/07/25 05:49:34;;;;;;;;;;;;;;;22.97;43.46;100376.78;4871758;28;98619;-59
2022/07/25 05:52:27;;;;;;;;;;;;;;;23.26;43.29;100378.31;4860726;28;98714;-59
2022/07/25 05:55:20;;;;;;;;;;;;;;;23.54;42.89;100378.22;4869484;28;97918;-60
2022/07/25 05:58:12;;;;;;;;;;;;;;;23.83;42.79;100379.69;4881917;28;98238;-59
2022/07/25 06:01:05;;;;;;;;;;;;;;;23.88;42.68;100373.91;4879753;28;98297;-59
2022/07/25 06:03:58;;;;;;;;;;;;;;;24.13;42.68;100370.88;4880426;28;98602;-59
2022/07/25 06:06:51;;;;;;;;;;;;;;;24.65;42.13;100375.13;4879011;28;97846;-59
2022/07/25 06:09:43;;;;;;;;;;;;;;;26.06;40.35;100377.09;4864772;28;98118;-67
2022/07/25 06:12:36;;;;;;;;;;;;;;;26.70;40.25;100372.34;4880483;28;97915;-66
2022/07/25 06:15:29;;;;;;;;;;;;;;;28.05;38.79;100372.63;4880048;28;98902;-59
2022/07/25 06:18:21;;;;;;;;;;;;;;;29.49;37.53;100366.25;4882491;28;97901;-59
2022/07/25 06:21:14;;;;;;;;;;;;;;;30.53;36.50;100374.28;4883194;28;98103;-59
2022/07/25 06:24:06;;;;;;;;;;;;;;;30.70;36.45;100358.72;4883476;28;98283;-59
2022/07/25 06:26:59;;;;;;;;;;;;;;;31.60;35.59;100356.00;4865710;28;98759;-67
2022/07/25 06:29:52;;;;;;;;;;;;;;;31.77;35.41;100358.63;4864077;28;97951;-66
2022/07/25 06:32:44;;;;;;;;;;;;;;;32.03;34.97;100350.81;4877797;28;97927;-65
2022/07/25 06:35:37;;;;;;;;;;;;;;;32.33;34.61;100343.66;4882042;28;98275;-59
2022/07/25 06:38:30;;;;;;;;;;;;;;;32.83;33.90;100349.34;4881677;28;99059;-59
2022/07/25 06:41:22;;;;;;;;;;;;;;;32.89;34.25;100333.66;4882564;28;98102;-59
2022/07/25 06:44:15;;;;;;;;;;;;;;;33.11;32.09;100330.56;4881017;28;98132;-65
2022/07/25 06:47:11;;;;;;;;;;;;;;;33.44;31.43;100329.56;4881715;28;98668;-65
2022/07/25 06:50:04;;;;;;;;;;;;;;;33.87;31.28;100317.59;4882519;28;98817;-59
2022/07/25 06:52:56;;;;;;;;;;;;;;;34.28;29.84;100310.00;4881516;28;97938;-59
2022/07/25 06:55:49;;;;;;;;;;;;;;;34.72;29.70;100296.63;4863253;28;97707;-59
2022/07/25 06:58:41;;;;;;;;;;;;;;;35.03;28.54;100295.06;4862748;28;98396;-65
2022/07/25 07:01:34;;;;;;;;;;;;;;;35.35;28.62;100297.00;4872042;28;98945;-59
2022/07/25 07:04:27;;;;;;;;;;;;;;;35.63;28.18;100301.06;4879625;28;99823;-59
2022/07/25 07:07:19;;;;;;;;;;;;;;;35.81;28.06;100289.34;4882540;28;98051;-65
2022/07/25 07:10:12;;;;;;;;;;;;;;;35.72;26.57;100294.00;4881480;28;98893;-66
2022/07/25 07:13:17;;;;;;;;;;;;;;;35.58;26.53;100287.59;4881495;28;98190;-66
2022/07/25 07:16:10;;;;;;;;;;;;;;;35.59;26.77;100291.19;4881162;28;98146;-60
2022/07/25 07:19:03;;;;;;;;;;;;;;;35.63;26.70;100283.47;4881839;28;98200;-65
2022/07/25 07:21:55;;;;;;;;;;;;;;;35.78;26.90;100284.63;4881701;28;98589;-59
2022/07/25 07:24:48;;;;;;;;;;;;;;;35.93;26.48;100279.41;4882060;28;98397;-59
2022/07/25 07:27:41;;;;;;;;;;;;;;;36.15;26.27;100271.13;4880168;28;98352;-65
2022/07/25 07:30:33;;;;;;;;;;;;;;;36.34;26.45;100266.53;4882315;28;97852;-65
2022/07/25 07:33:26;;;;;;;;;;;;;;;36.47;26.63;100267.38;4880902;28;99185;-65
2022/07/25 07:36:19;;;;;;;;;;;;;;;36.60;26.23;100276.53;4881298;28;99247;-59
2022/07/25 07:39:11;;;;;;;;;;;;;;;36.71;25.67;100272.59;4872202;28;98072;-68
2022/07/25 07:42:04;;;;;;;;;;;;;;;36.71;25.27;100266.97;4882258;28;98335;-65
2022/07/25 07:44:56;;;;;;;;;;;;;;;36.76;25.52;100269.22;4881596;28;98472;-64
2022/07/25 07:47:49;;;;;;;;;;;;;;;36.79;25.19;100266.31;4881202;28;99101;-64
2022/07/25 07:50:43;;;;;;;;;;;;;;;36.89;24.89;100272.00;4863012;28;98240;-58
2022/07/25 07:56:38;;;;;;;;;;;;;;;37.27;25.55;100255.84;4877204;28;98259;-66
2022/07/25 07:59:31;;;;;;;;;;;;;;;37.55;24.95;100264.50;4874188;28;98130;-59
2022/07/25 08:02:24;;;;;;;;;;;;;;;37.84;24.70;100261.38;4880113;28;98209;-59
2022/07/25 08:05:16;;;;;;;;;;;;;;;38.15;24.20;100246.56;4882956;28;98173;-64
2022/07/25 08:08:09;;;;;;;;;;;;;;;38.57;23.99;100246.13;4880638;28;98346;-65
2022/07/25 08:11:03;;;;;;;;;;;;;;;38.93;23.49;100246.19;4881778;28;98390;-59
2022/07/25 08:13:56;;;;;;;;;;;;;;;39.22;23.52;100231.66;4880777;28;97964;-59
2022/07/25 08:16:49;;;;;;;;;;;;;;;39.68;23.05;100242.91;4881516;28;98327;-59
2022/07/25 08:19:42;;;;;;;;;;;;;;;40.18;22.95;100237.75;4879936;28;98238;-59
2022/07/25 08:22:42;;;;;;;;;;;;;;;40.72;22.60;100237.94;4862273;28;98530;-64
2022/07/25 08:25:35;;;;;;;;;;;;;;;41.33;22.50;100231.97;4873766;28;98142;-64
2022/07/25 08:28:28;;;;;;;;;;;;;;;41.87;21.84;100233.47;4880715;28;98294;-64
2022/07/25 08:31:21;;;;;;;;;;;;;;;42.50;21.01;100221.03;4881254;28;98353;-59
2022/07/25 08:34:14;;;;;;;;;;;;;;;42.76;20.08;100221.13;4881134;28;98255;-59
2022/07/25 08:37:06;;;;;;;;;;;;;;;43.02;19.89;100229.69;4880549;28;98037;-59
2022/07/25 08:39:59;;;;;;;;;;;;;;;43.37;19.96;100226.72;4881702;28;97986;-65
2022/07/25 08:42:53;;;;;;;;;;;;;;;43.77;19.90;100219.34;4880032;28;98249;-67
2022/07/25 08:45:46;;;;;;;;;;;;;;;44.30;19.30;100218.75;4881239;28;98764;-59
2022/07/25 08:48:40;;;;;;;;;;;;;;;44.64;18.62;100206.75;4880621;28;98039;-65
2022/07/25 08:51:32;;;;;;;;;;;;;;;44.96;18.76;100211.03;4881101;28;98123;-65
2022/07/25 08:54:25;;;;;;;;;;;;;;;45.37;18.41;100202.09;4880386;28;98222;-59
2022/07/25 08:57:18;;;;;;;;;;;;;;;46.00;18.55;100204.44;4880545;28;98504;-64
2022/07/25 09:00:10;;;;;;;;;;;;;;;46.62;17.62;100200.69;4880305;28;98100;-58
2022/07/25 09:03:08;;;;;;;;;;;;;;;46.95;17.46;100196.88;4880450;28;98484;-58
2022/07/25 09:06:01;;;;;;;;;;;;;;;47.33;16.69;100194.31;4879965;28;99014;-64
2022/07/25 09:09:04;;;;;;;;;;;;;;;47.65;16.22;100188.88;4880665;28;98247;-63
2022/07/25 09:11:57;;;;;;;;;;;;;;;48.04;16.08;100182.78;4868294;28;98395;-61
2022/07/25 09:14:57;;;;;;;;;;;;;;;48.63;16.21;100174.59;4880047;28;97734;-57
2022/07/25 09:17:57;;;;;;;;;;;;;;;49.14;15.27;100166.84;4878253;28;98419;-63
2022/07/25 09:21:10;;;;;;;;;;;;;;;49.28;14.87;100167.66;4878876;28;100123;-57
2022/07/25 09:24:32;;;;;;;;;;;;;;;49.47;15.09;100155.38;4880942;28;98139;-62
2022/07/25 09:27:26;;;;;;;;;;;;;;;49.88;14.43;100149.22;4879855;28;97850;-65
2022/07/25 09:30:29;;;;;;;;;;;;;;;49.74;15.35;100154.13;4880995;28;98431;-57
2022/07/25 09:33:31;;;;;;;;;;;;;;;49.40;15.51;100145.34;4878538;28;98641;-57
2022/07/25 09:36:27;;;;;;;;;;;;;;;48.92;15.52;100136.50;4878404;28;98480;-57
2022/07/25 09:39:20;;;;;;;;;;;;;;;48.66;15.89;100139.22;4880402;28;98371;-57
2022/07/25 09:42:21;;;;;;;;;;;;;;;48.56;15.59;100126.63;4879677;28;98613;-57
2022/07/25 09:45:37;;;;;;;;;;;;;;;48.81;14.83;100133.81;4880172;28;98836;-58
2022/07/25 09:48:32;;;;;;;;;;;;;;;49.43;14.87;100118.53;4865699;28;98162;-57
2022/07/25 09:51:25;;;;;;;;;;;;;;;50.24;14.66;100126.66;4860204;28;97709;-64
2022/07/25 09:54:17;;;;;;;;;;;;;;;51.10;13.84;100124.19;4874898;28;98876;-64
2022/07/25 09:57:10;;;;;;;;;;;;;;;51.67;14.08;100114.91;4879868;28;98639;-64
2022/07/25 10:00:02;;;;;;;;;;;;;;;52.26;13.68;100104.34;4879484;28;97928;-63
2022/07/25 10:03:48;;;;;;;;;;;;;;;52.78;13.42;100092.03;4879822;28;98333;-63
2022/07/25 10:06:40;;;;;;;;;;;;;;;53.27;12.58;100094.63;4834056;28;98356;-57
2022/07/25 10:09:42;;;;;;;;;;;;;;;53.48;12.74;100086.50;4869371;28;99045;-58
2022/07/25 10:12:37;;;;;;;;;;;;;;;53.77;12.88;100074.78;4872115;28;97910;-58
2022/07/25 10:15:30;;;;;;;;;;;;;;;54.16;12.49;100069.63;4879061;28;97869;-57
2022/07/25 10:18:40;;;;;;;;;;;;;;;54.42;12.15;100071.25;4879426;28;98465;-57
2022/07/25 10:21:43;;;;;;;;;;;;;;;54.45;11.89;100063.56;4891236;28;98443;-57
2022/07/25 10:24:40;;;;;;;;;;;;;;;54.53;12.39;100050.66;4879894;28;98198;-64
2022/07/25 10:27:47;;;;;;;;;;;;;;;54.84;12.69;100048.31;4879722;28;98228;-63
2022/07/25 10:31:04;;;;;;;;;;;;;;;55.13;11.41;100047.88;4879347;28;98517;-64
2022/07/25 10:33:58;;;;;;;;;;;;;;;54.99;11.84;100033.00;4879262;28;99967;-63
2022/07/25 10:37:16;;;;;;;;;;;;;;;54.94;11.53;100027.47;4878953;28;98634;-64
2022/07/25 10:40:09;;;;;;;;;;;;;;;54.43;11.53;100029.53;4877623;28;97956;-63
2022/07/25 10:43:13;;;;;;;;;;;;;;;54.62;11.59;100032.69;4878503;28;98810;-58
2022/07/25 10:46:26;;;;;;;;;;;;;;;54.73;11.52;100017.06;4879215;28;98350;-58
2022/07/25 10:49:43;;;;;;;;;;;;;;;54.16;12.00;100001.28;4878601;28;98809;-58
2022/07/25 10:52:53;;;;;;;;;;;;;;;50.80;13.74;99987.78;4878414;28;98449;-63
2022/07/25 10:55:55;;;;;;;;;;;;;;;51.19;13.70;99980.28;4865781;28;98337;-58
2022/07/25 10:59:15;;;;;;;;;;;;;;;52.48;12.83;99987.19;4877824;28;98644;-58
2022/07/25 11:02:08;;;;;;;;;;;;;;;53.16;12.00;99980.66;4865070;28;97856;-58
2022/07/25 11:05:01;;;;;;;;;;;;;;;53.60;11.80;99986.16;4868369;28;98340;-64
2022/07/25 11:08:05;;;;;;;;;;;;;;;54.06;12.41;99983.09;4881336;28;98443;-58
2022/07/25 11:10:57;;;;;;;;;;;;;;;54.36;12.27;99976.38;4882209;28;98543;-58
2022/07/25 11:13:53;;;;;;;;;;;;;;;54.44;12.03;99973.44;4881733;28;98049;-58
2022/07/25 11:16:46;;;;;;;;;;;;;;;54.38;11.83;99967.16;4881578;28;97853;-58
2022/07/25 11:19:48;;;;;;;;;;;;;;;54.22;11.86;99963.59;4880926;28;98459;-64
2022/07/25 11:22:40;;;;;;;;;;;;;;;54.22;12.11;99954.22;4881727;28;98634;-64
2022/07/25 11:25:50;;;;;;;;;;;;;;;54.08;12.29;99947.91;4881334;28;98083;-58
2022/07/25 11:28:55;;;;;;;;;;;;;;;53.90;12.43;99932.69;4880289;28;98191;-64
2022/07/25 11:31:48;;;;;;;;;;;;;;;53.09;12.07;99946.94;4880087;28;98673;-57
2022/07/25 11:34:58;;;;;;;;;;;;;;;52.51;12.73;99928.53;4881339;28;97777;-65
2022/07/25 11:37:51;;;;;;;;;;;;;;;52.15;12.44;99920.81;4881130;28;98648;-57
2022/07/25 11:40:49;;;;;;;;;;;;;;;51.66;12.67;99909.59;4881470;28;98015;-64
2022/07/25 11:43:42;;;;;;;;;;;;;;;51.22;13.40;99890.25;4878878;28;98302;-58
2022/07/25 11:46:35;;;;;;;;;;;;;;;50.93;13.25;99903.03;4881074;28;98391;-65
2022/07/25 11:49:36;;;;;;;;;;;;;;;50.63;13.71;99900.72;4880634;28;97843;-64
2022/07/25 11:52:41;;;;;;;;;;;;;;;50.43;13.24;99903.03;4862759;28;97685;-64
2022/07/25 11:55:36;;;;;;;;;;;;;;;50.34;13.20;99895.66;4879083;28;98402;-57
2022/07/25 11:58:30;;;;;;;;;;;;;;;50.38;13.21;99883.09;4881395;28;98758;-64
2022/07/25 12:01:28;;;;;;;;;;;;;;;50.47;13.13;99888.34;4879210;28;98038;-64
2022/07/25 12:04:32;;;;;;;;;;;;;;;50.70;12.74;99885.66;4879499;28;98160;-65
2022/07/25 12:07:24;;;;;;;;;;;;;;;50.70;12.82;99883.56;4880523;28;98316;-64
2022/07/25 12:10:34;;;;;;;;;;;;;;;50.85;12.63;99880.03;4881788;28;98510;-58
2022/07/25 12:13:38;;;;;;;;;;;;;;;50.87;12.73;99874.53;4879930;28;98215;-58
2022/07/25 12:16:31;;;;;;;;;;;;;;;50.89;13.08;99880.47;4880206;28;99279;-65
2022/07/25 12:19:26;;;;;;;;;;;;;;;50.86;12.83;99877.94;4880741;28;98348;-58
2022/07/25 12:22:19;;;;;;;;;;;;;;;50.98;13.09;99865.63;4879040;28;98289;-65
2022/07/25 12:25:11;;;;;;;;;;;;;;;50.93;12.62;99872.28;4880923;28;98022;-57
2022/07/25 12:28:04;;;;;;;;;;;;;;;50.79;13.20;99877.34;4881237;28;98008;-58
2022/07/25 12:30:57;;;;;;;;;;;;;;;50.65;12.89;99860.78;4880245;28;98886;-58
2022/07/25 12:33:51;;;;;;;;;;;;;;;50.34;12.62;99863.41;4881013;28;98417;-64
2022/07/25 12:36:44;;;;;;;;;;;;;;;50.15;12.66;99862.81;4881421;28;97785;-57
2022/07/25 12:39:37;;;;;;;;;;;;;;;49.81;12.75;99864.38;4878659;28;97899;-65
2022/07/25 12:42:30;;;;;;;;;;;;;;;49.56;13.11;99851.69;4878160;28;98189;-64
2022/07/25 12:45:23;;;;;;;;;;;;;;;49.42;13.22;99838.72;4878795;28;99239;-57
2022/07/25 12:48:16;;;;;;;;;;;;;;;49.46;13.34;99847.75;4880233;28;98135;-57
2022/07/25 12:51:09;;;;;;;;;;;;;;;49.47;13.31;99840.69;4880552;28;97943;-57
2022/07/25 12:54:01;;;;;;;;;;;;;;;49.37;13.40;99846.88;4880338;28;98298;-58
2022/07/25 12:56:54;;;;;;;;;;;;;;;49.29;13.60;99843.16;4861468;28;98578;-58
2022/07/25 12:59:46;;;;;;;;;;;;;;;49.19;13.75;99830.63;4865265;28;97930;-63
2022/07/25 13:02:39;;;;;;;;;;;;;;;48.82;13.39;99834.50;4878345;28;99325;-58
2022/07/25 13:05:32;;;;;;;;;;;;;;;48.43;13.91;99821.69;4878923;28;98363;-58
2022/07/25 13:08:24;;;;;;;;;;;;;;;48.03;14.04;99824.41;4878954;28;98720;-58
2022/07/25 13:11:17;;;;;;;;;;;;;;;47.69;14.15;99818.44;4878937;28;98085;-58
2022/07/25 13:14:10;;;;;;;;;;;;;;;47.31;14.72;99814.75;4878943;28;97872;-63
2022/07/25 13:17:02;;;;;;;;;;;;;;;47.09;14.52;99808.06;4859262;28;98476;-57
2022/07/25 13:19:55;;;;;;;;;;;;;;;46.81;14.44;99818.97;4875517;28;99128;-57
2022/07/25 13:22:47;;;;;;;;;;;;;;;46.54;14.93;99812.25;4859282;28;97914;-63
2022/07/25 13:25:40;;;;;;;;;;;;;;;46.29;15.21;99802.91;4870849;28;98074;-64
2022/07/25 13:28:32;;;;;;;;;;;;;;;45.98;15.21;99802.09;4877840;28;98588;-58
2022/07/25 13:31:25;;;;;;;;;;;;;;;45.74;15.39;99799.91;4878378;28;98552;-57
2022/07/25 13:34:18;;;;;;;;;;;;;;;45.51;15.72;99791.56;4878022;28;97808;-65
2022/07/25 13:37:10;;;;;;;;;;;;;;;45.16;15.69;99794.28;4877950;28;98011;-58
2022/07/25 13:40:03;;;;;;;;;;;;;;;44.93;16.02;99783.00;4877259;28;98442;-58
2022/07/25 13:42:55;;;;;;;;;;;;;;;44.43;15.99;99791.59;4877731;28;98619;-57
2022/07/25 13:45:48;;;;;;;;;;;;;;;43.85;15.94;99777.88;4876948;28;98095;-57
2022/07/25 13:48:41;;;;;;;;;;;;;;;43.46;16.42;99772.91;4877902;28;97815;-64
2022/07/25 13:51:33;;;;;;;;;;;;;;;43.13;16.60;99771.50;4876269;28;98688;-63
2022/07/25 13:54:26;;;;;;;;;;;;;;;42.91;16.86;99768.56;4877822;28;98274;-63
2022/07/25 13:57:18;;;;;;;;;;;;;;;42.73;16.92;99774.66;4877759;28;98291;-63
2022/07/25 14:00:11;;;;;;;;;;;;;;;42.47;17.23;99769.81;4878186;28;97889;-65
2022/07/25 14:03:04;;;;;;;;;;;;;;;42.20;17.53;99773.97;4876825;28;98285;-57
2022/07/25 14:05:57;;;;;;;;;;;;;;;41.97;17.54;99758.88;4875317;28;101097;-57
2022/07/25 14:08:49;;;;;;;;;;;;;;;41.64;17.52;99760.09;4877693;28;98429;-64
2022/07/25 14:11:41;;;;;;;;;;;;;;;41.36;17.98;99759.78;4876797;28;98110;-64
2022/07/25 14:14:34;;;;;;;;;;;;;;;41.01;17.91;99748.56;4877128;28;98269;-62
2022/07/25 14:17:27;;;;;;;;;;;;;;;40.74;18.23;99758.19;4877455;28;98369;-64
2022/07/25 14:20:19;;;;;;;;;;;;;;;40.50;18.34;99747.06;4876656;28;98200;-58
2022/07/25 14:23:12;;;;;;;;;;;;;;;40.26;18.68;99744.41;4876843;28;98410;-64
2022/07/25 14:26:05;;;;;;;;;;;;;;;40.01;18.92;99740.13;4874094;28;98723;-58
2022/07/25 14:28:57;;;;;;;;;;;;;;;39.87;19.02;99736.03;4873340;28;98179;-63
2022/07/25 14:31:50;;;;;;;;;;;;;;;39.78;19.05;99732.56;4873831;28;98528;-63
2022/07/25 14:34:43;;;;;;;;;;;;;;;39.69;19.32;99737.00;4874358;28;97812;-63
2022/07/25 14:37:36;;;;;;;;;;;;;;;39.59;19.33;99729.88;4870066;28;98428;-57
2022/07/25 14:40:29;;;;;;;;;;;;;;;39.43;19.75;99730.38;4874819;28;98291;-57
2022/07/25 14:43:21;;;;;;;;;;;;;;;39.22;19.50;99733.03;4876628;28;98127;-63
2022/07/25 14:46:14;;;;;;;;;;;;;;;38.95;20.03;99731.19;4877137;28;99845;-64
2022/07/25 14:49:07;;;;;;;;;;;;;;;38.66;20.52;99731.03;4876790;28;98564;-57
2022/07/25 14:52:00;;;;;;;;;;;;;;;38.35;20.75;99718.06;4875840;28;97990;-57
2022/07/25 14:54:52;;;;;;;;;;;;;;;37.98;21.21;99706.16;4877070;28;98451;-63
2022/07/25 14:57:45;;;;;;;;;;;;;;;37.66;21.16;99699.97;4910207;28;97789;-57
2022/07/25 15:00:41;;;;;;;;;;;;;;;37.61;21.46;99699.81;4875926;28;98383;-63
2022/07/25 15:03:34;;;;;;;;;;;;;;;37.51;21.83;99696.25;4876036;28;98324;-57